createdAt,value
2018-06-02T00:01:19.779Z,17.85
2018-06-02T00:03:48.657Z,17.84
2018-06-02T00:06:17.566Z,17.82
2018-06-02T00:08:46.484Z,17.79
2018-06-02T00:11:15.383Z,17.80
2018-06-02T00:13:44.125Z,17.77
2018-06-02T00:16:12.990Z,17.82
2018-06-02T00:18:41.861Z,17.84
2018-06-02T00:21:10.760Z,17.85
2018-06-02T00:23:39.589Z,17.87
2018-06-02T00:26:08.466Z,17.90
2018-06-02T00:28:37.339Z,17.87
2018-06-02T00:31:06.178Z,17.83
2018-06-02T00:33:35.105Z,17.84
2018-06-02T00:36:03.947Z,17.90
2018-06-02T00:38:34.091Z,17.84
2018-06-02T00:41:02.928Z,17.87
2018-06-02T00:43:31.858Z,17.87
2018-06-02T00:46:00.696Z,17.83
2018-06-02T00:48:29.571Z,17.82
2018-06-02T00:50:58.477Z,17.82
2018-06-02T00:53:27.331Z,17.82
2018-06-02T00:55:56.184Z,17.80
2018-06-02T00:58:25.158Z,17.86
2018-06-02T01:00:54.059Z,17.83
2018-06-02T01:03:22.943Z,17.87
2018-06-02T01:05:51.836Z,17.87
2018-06-02T01:08:20.713Z,17.88
2018-06-02T01:10:49.566Z,17.91
2018-06-02T01:13:18.472Z,17.94
2018-06-02T01:15:47.304Z,17.96
2018-06-02T01:18:16.204Z,17.93
2018-06-02T01:20:45.068Z,17.87
2018-06-02T01:23:13.971Z,17.86
2018-06-02T01:25:42.860Z,17.85
2018-06-02T01:28:11.780Z,17.88
2018-06-02T01:30:40.638Z,17.92
2018-06-02T01:33:09.561Z,17.93
2018-06-02T01:35:38.442Z,17.89
2018-06-02T01:38:07.304Z,17.94
2018-06-02T01:40:36.203Z,17.94
2018-06-02T01:43:05.068Z,17.91
2018-06-02T01:45:33.911Z,18.26
2018-06-02T01:48:02.775Z,18.01
2018-06-02T01:50:31.639Z,18.01
2018-06-02T01:53:00.527Z,17.93
2018-06-02T01:55:29.404Z,17.95
2018-06-02T01:57:58.252Z,17.94
2018-06-02T02:00:27.118Z,17.95
2018-06-02T02:02:55.991Z,17.93
2018-06-02T02:05:24.875Z,18.30
2018-06-02T02:07:53.704Z,18.05
2018-06-02T02:10:22.578Z,17.89
2018-06-02T02:12:51.449Z,17.91
2018-06-02T02:15:20.288Z,17.95
2018-06-02T02:17:49.147Z,17.80
2018-06-02T02:20:18.017Z,17.89
2018-06-02T02:22:46.868Z,17.90
2018-06-02T02:25:15.750Z,17.88
2018-06-02T02:27:44.595Z,17.92
2018-06-02T02:30:16.448Z,17.92
2018-06-02T02:32:45.293Z,17.92
2018-06-02T02:35:14.171Z,17.92
2018-06-02T02:37:43.015Z,17.96
2018-06-02T02:40:11.899Z,17.86
2018-06-02T02:42:40.756Z,17.89
2018-06-02T02:45:09.616Z,17.86
2018-06-02T02:47:38.538Z,17.90
2018-06-02T02:50:07.387Z,18.30
2018-06-02T02:52:36.265Z,18.10
2018-06-02T02:55:05.169Z,18.10
2018-06-02T02:57:34.026Z,18.09
2018-06-02T03:00:02.872Z,18.07
2018-06-02T03:02:31.720Z,18.01
2018-06-02T03:05:00.565Z,18.03
2018-06-02T03:07:29.435Z,17.98
2018-06-02T03:09:58.339Z,17.96
2018-06-02T03:12:27.234Z,17.95
2018-06-02T03:14:56.106Z,17.95
2018-06-02T03:17:24.976Z,17.97
2018-06-02T03:19:53.848Z,17.97
2018-06-02T03:22:22.689Z,18.01
2018-06-02T03:24:51.549Z,17.99
2018-06-02T03:27:20.381Z,17.98
2018-06-02T03:29:49.234Z,17.97
2018-06-02T03:32:18.076Z,18.37
2018-06-02T03:34:46.931Z,18.13
2018-06-02T03:37:15.828Z,18.01
2018-06-02T03:39:44.711Z,18.05
2018-06-02T03:42:13.536Z,18.03
2018-06-02T03:44:42.408Z,18.04
2018-06-02T03:47:11.229Z,18.01
2018-06-02T03:49:40.075Z,17.94
2018-06-02T03:52:08.974Z,17.94
2018-06-02T03:54:37.828Z,17.86
2018-06-02T03:57:06.686Z,17.85
2018-06-02T03:59:35.736Z,17.84
2018-06-02T04:02:04.608Z,17.88
2018-06-02T04:04:33.507Z,17.81
2018-06-02T04:07:02.393Z,17.83
2018-06-02T04:09:31.253Z,17.89
2018-06-02T04:12:00.157Z,18.15
2018-06-02T04:14:29.020Z,17.94
2018-06-02T04:16:57.886Z,17.92
2018-06-02T04:19:26.763Z,17.89
2018-06-02T04:21:55.618Z,17.94
2018-06-02T04:24:24.467Z,17.95
2018-06-02T04:26:53.337Z,17.99
2018-06-02T04:29:22.178Z,17.95
2018-06-02T04:31:51.019Z,18.03
2018-06-02T04:34:19.865Z,18.00
2018-06-02T04:36:48.702Z,17.95
2018-06-02T04:39:17.581Z,17.75
2018-06-02T04:41:46.426Z,17.83
2018-06-02T04:44:15.288Z,17.88
2018-06-02T04:46:44.113Z,17.88
2018-06-02T04:49:12.967Z,17.83
2018-06-02T04:51:41.799Z,17.84
2018-06-02T04:54:10.664Z,17.83
2018-06-02T04:56:39.506Z,17.70
2018-06-02T04:59:08.396Z,17.82
2018-06-02T05:01:37.242Z,17.80
2018-06-02T05:04:06.104Z,18.20
2018-06-02T05:06:34.972Z,18.00
2018-06-02T05:09:04.322Z,17.96
2018-06-02T05:11:33.175Z,17.94
2018-06-02T05:14:02.047Z,17.81
2018-06-02T05:16:30.970Z,17.73
2018-06-02T05:18:59.828Z,18.20
2018-06-02T05:21:28.648Z,17.93
2018-06-02T05:23:57.544Z,17.90
2018-06-02T05:26:26.395Z,17.76
2018-06-02T05:28:55.247Z,17.86
2018-06-02T05:31:24.102Z,18.25
2018-06-02T05:33:52.983Z,18.02
2018-06-02T05:36:21.878Z,18.06
2018-06-02T05:38:50.747Z,17.95
2018-06-02T05:41:19.608Z,17.94
2018-06-02T05:43:48.444Z,17.98
2018-06-02T05:46:17.329Z,17.97
2018-06-02T05:48:46.189Z,17.98
2018-06-02T05:51:15.016Z,18.01
2018-06-02T05:53:43.911Z,18.02
2018-06-02T05:56:12.769Z,17.98
2018-06-02T05:58:41.615Z,18.01
2018-06-02T06:01:10.451Z,18.36
2018-06-02T06:03:39.375Z,18.20
2018-06-02T06:06:08.171Z,18.20
2018-06-02T06:08:37.033Z,18.20
2018-06-02T06:11:05.911Z,18.17
2018-06-02T06:13:34.736Z,18.13
2018-06-02T06:16:03.613Z,18.55
2018-06-02T06:18:32.499Z,18.31
2018-06-02T06:21:01.501Z,18.22
2018-06-02T06:23:30.379Z,18.25
2018-06-02T06:25:59.245Z,18.19
2018-06-02T06:28:28.089Z,18.44
2018-06-02T06:30:56.982Z,18.22
2018-06-02T06:33:25.816Z,18.15
2018-06-02T06:35:54.718Z,18.06
2018-06-02T06:38:23.569Z,17.97
2018-06-02T06:40:52.722Z,18.03
2018-06-02T06:43:21.551Z,18.01
2018-06-02T06:45:50.411Z,18.39
2018-06-02T06:48:19.284Z,18.13
2018-06-02T06:50:48.107Z,18.20
2018-06-02T06:53:16.963Z,18.29
2018-06-02T06:55:45.820Z,18.24
2018-06-02T06:58:14.840Z,18.62
2018-06-02T07:00:43.720Z,18.38
2018-06-02T07:03:12.606Z,18.27
2018-06-02T07:05:41.436Z,18.24
2018-06-02T07:08:10.306Z,18.21
2018-06-02T07:10:39.178Z,18.17
2018-06-02T07:13:08.010Z,18.28
2018-06-02T07:15:36.934Z,18.30
2018-06-02T07:19:06.024Z,18.33
2018-06-02T07:21:36.195Z,18.27
2018-06-02T07:24:05.091Z,18.32
2018-06-02T07:26:33.956Z,18.31
2018-06-02T07:29:02.795Z,18.34
2018-06-02T07:31:31.738Z,18.33
2018-06-02T07:34:00.597Z,18.29
2018-06-02T07:36:29.446Z,18.38
2018-06-02T07:38:58.318Z,18.37
2018-06-02T07:41:27.176Z,18.78
2018-06-02T07:43:56.011Z,18.56
2018-06-02T07:46:24.853Z,18.52
2018-06-02T07:48:53.678Z,18.89
2018-06-02T07:51:22.552Z,18.74
2018-06-02T07:53:51.383Z,18.69
2018-06-02T07:56:20.264Z,18.58
2018-06-02T07:58:49.103Z,18.91
2018-06-02T08:01:17.935Z,19.20
2018-06-02T08:03:46.800Z,18.93
2018-06-02T08:06:15.639Z,18.84
2018-06-02T08:08:44.537Z,18.73
2018-06-02T08:11:13.331Z,18.59
2018-06-02T08:13:42.170Z,18.64
2018-06-02T08:16:11.051Z,18.68
2018-06-02T08:18:39.886Z,18.60
2018-06-02T08:21:08.744Z,18.65
2018-06-02T08:23:37.627Z,18.75
2018-06-02T08:26:06.471Z,18.70
2018-06-02T08:28:35.312Z,18.60
2018-06-02T08:31:04.175Z,18.42
2018-06-02T08:33:33.054Z,18.46
2018-06-02T08:36:01.899Z,18.21
2018-06-02T08:38:30.719Z,18.24
2018-06-02T08:40:59.587Z,18.17
2018-06-02T08:43:28.458Z,18.05
2018-06-02T08:45:57.466Z,18.12
2018-06-02T08:48:26.377Z,17.96
2018-06-02T08:50:55.203Z,18.11
2018-06-02T08:53:24.066Z,18.08
2018-06-02T08:55:52.924Z,18.08
2018-06-02T08:58:21.764Z,18.18
2018-06-02T09:00:50.616Z,18.61
2018-06-02T09:03:19.465Z,18.31
2018-06-02T09:05:48.331Z,18.21
2018-06-02T09:08:17.175Z,18.25
2018-06-02T09:10:46.033Z,18.21
2018-06-02T09:13:14.878Z,18.28
2018-06-02T09:15:43.705Z,18.37
2018-06-02T09:18:12.567Z,18.43
2018-06-02T09:20:41.408Z,18.44
2018-06-02T09:23:10.330Z,18.45
2018-06-02T09:25:39.151Z,18.89
2018-06-02T09:28:09.415Z,18.58
2018-06-02T09:30:38.301Z,18.74
2018-06-02T09:33:07.192Z,18.72
2018-06-02T09:35:36.083Z,18.66
2018-06-02T09:38:05.120Z,18.77
2018-06-02T09:40:34.045Z,18.85
2018-06-02T09:43:02.949Z,18.89
2018-06-02T09:45:31.798Z,18.94
2018-06-02T09:48:00.717Z,19.08
2018-06-02T09:50:29.684Z,19.15
2018-06-02T09:52:58.547Z,19.18
2018-06-02T09:55:27.400Z,19.12
2018-06-02T09:57:56.304Z,19.55
2018-06-02T10:00:25.697Z,19.34
2018-06-02T10:02:54.426Z,19.39
2018-06-02T10:05:23.284Z,19.43
2018-06-02T10:07:52.139Z,19.41
2018-06-02T10:10:21.032Z,19.37
2018-06-02T10:12:49.882Z,19.61
2018-06-02T10:15:18.718Z,19.73
2018-06-02T10:17:47.567Z,19.67
2018-06-02T10:20:16.415Z,19.70
2018-06-02T10:22:45.277Z,19.73
2018-06-02T10:25:14.122Z,19.59
2018-06-02T10:27:42.984Z,19.39
2018-06-02T10:30:11.830Z,19.30
2018-06-02T10:32:40.833Z,19.26
2018-06-02T10:35:09.708Z,19.37
2018-06-02T10:37:38.544Z,19.49
2018-06-02T10:40:07.406Z,19.51
2018-06-02T10:42:36.276Z,19.61
2018-06-02T10:45:05.137Z,19.65
2018-06-02T10:47:33.981Z,19.59
2018-06-02T10:50:03.213Z,19.73
2018-06-02T10:52:32.177Z,19.91
2018-06-02T10:55:01.270Z,20.03
2018-06-02T10:57:30.320Z,20.03
2018-06-02T10:59:59.307Z,20.07
2018-06-02T11:02:28.647Z,20.21
2018-06-02T11:04:57.639Z,20.65
2018-06-02T11:07:26.929Z,20.39
2018-06-02T11:09:56.019Z,20.80
2018-06-02T11:12:25.241Z,20.42
2018-06-02T11:14:54.533Z,20.12
2018-06-02T11:17:27.882Z,20.08
2018-06-02T11:19:55.114Z,20.10
2018-06-02T11:22:24.207Z,20.52
2018-06-02T11:24:53.311Z,20.50
2018-06-02T11:27:22.494Z,20.41
2018-06-02T11:29:52.371Z,20.57
2018-06-02T11:32:21.475Z,20.73
2018-06-02T11:34:50.534Z,20.79
2018-06-02T11:37:19.614Z,20.89
2018-06-02T11:39:48.760Z,20.90
2018-06-02T11:42:17.907Z,20.82
2018-06-02T11:44:47.018Z,20.72
2018-06-02T11:47:16.098Z,20.47
2018-06-02T11:49:45.193Z,20.54
2018-06-02T11:52:14.394Z,20.59
2018-06-02T11:54:43.938Z,20.68
2018-06-02T11:57:13.353Z,20.73
2018-06-02T11:59:46.352Z,20.69
2018-06-02T12:02:15.322Z,20.58
2018-06-02T12:04:44.463Z,20.70
2018-06-02T12:07:13.484Z,20.76
2018-06-02T12:09:44.584Z,20.82
2018-06-02T12:12:14.253Z,20.76
2018-06-02T12:14:43.710Z,20.59
2018-06-02T12:17:12.764Z,20.32
2018-06-02T12:19:44.162Z,20.44
2018-06-02T12:22:13.393Z,20.57
2018-06-02T12:24:42.744Z,21.13
2018-06-02T12:27:11.918Z,21.43
2018-06-02T12:29:40.953Z,21.11
2018-06-02T12:32:10.167Z,20.88
2018-06-02T12:34:39.321Z,20.64
2018-06-02T12:37:08.320Z,20.77
2018-06-02T12:39:37.411Z,20.76
2018-06-02T12:42:06.483Z,20.68
2018-06-02T12:44:35.574Z,20.72
2018-06-02T12:47:04.699Z,20.75
2018-06-02T12:49:34.000Z,20.88
2018-06-02T12:52:03.482Z,20.95
2018-06-02T12:54:32.761Z,20.98
2018-06-02T12:57:01.697Z,21.54
2018-06-02T12:59:30.742Z,21.46
2018-06-02T13:01:59.759Z,21.52
2018-06-02T13:04:28.811Z,21.42
2018-06-02T13:06:57.838Z,21.42
2018-06-02T13:09:26.848Z,21.32
2018-06-02T13:11:55.830Z,21.27
2018-06-02T13:14:24.950Z,21.22
2018-06-02T13:16:54.075Z,21.58
2018-06-02T13:19:23.345Z,21.28
2018-06-02T13:21:53.299Z,21.05
2018-06-02T13:24:22.352Z,20.99
2018-06-02T13:26:54.201Z,21.48
2018-06-02T13:29:23.280Z,21.64
2018-06-02T13:31:52.351Z,21.67
2018-06-02T13:34:21.432Z,21.38
2018-06-02T13:36:50.505Z,21.29
2018-06-02T13:39:19.464Z,21.14
2018-06-02T13:41:48.668Z,21.22
2018-06-02T13:44:17.697Z,21.24
2018-06-02T13:46:46.746Z,21.07
2018-06-02T13:49:16.147Z,20.89
2018-06-02T13:51:45.032Z,21.12
2018-06-02T13:54:14.120Z,21.02
2018-06-02T13:56:45.614Z,21.06
2018-06-02T13:59:14.746Z,21.22
2018-06-02T14:01:45.668Z,21.30
2018-06-02T14:04:14.631Z,21.08
2018-06-02T14:06:43.810Z,21.22
2018-06-02T14:09:12.962Z,21.29
2018-06-02T14:11:41.966Z,21.22
2018-06-02T14:14:11.027Z,21.37
2018-06-02T14:16:40.119Z,21.42
2018-06-02T14:19:09.304Z,21.96
2018-06-02T14:21:41.165Z,22.09
2018-06-02T14:24:10.396Z,21.78
2018-06-02T14:26:39.454Z,21.77
2018-06-02T14:29:08.632Z,21.69
2018-06-02T14:31:37.655Z,21.69
2018-06-02T14:34:11.509Z,21.48
2018-06-02T14:36:40.816Z,21.55
2018-06-02T14:39:09.855Z,21.43
2018-06-02T14:41:39.069Z,21.43
2018-06-02T14:44:08.370Z,21.70
2018-06-02T14:46:37.391Z,21.49
2018-06-02T14:49:06.523Z,21.38
2018-06-02T14:51:35.698Z,21.37
2018-06-02T14:54:04.700Z,21.22
2018-06-02T14:56:33.615Z,21.34
2018-06-02T14:59:02.684Z,21.49
2018-06-02T15:01:32.092Z,21.51
2018-06-02T15:04:01.193Z,21.63
2018-06-02T15:06:32.416Z,21.71
2018-06-02T15:09:03.340Z,21.84
2018-06-02T15:11:34.952Z,21.52
2018-06-02T15:14:06.176Z,21.57
2018-06-02T15:16:35.202Z,21.42
2018-06-02T15:19:04.401Z,21.31
2018-06-02T15:21:33.508Z,21.33
2018-06-02T15:24:05.422Z,21.11
2018-06-02T15:26:34.274Z,21.07
2018-06-02T15:29:03.416Z,21.03
2018-06-02T15:31:34.801Z,21.05
2018-06-02T15:34:03.921Z,20.96
2018-06-02T15:36:33.004Z,20.99
2018-06-02T15:39:02.112Z,21.07
2018-06-02T15:41:31.301Z,21.16
2018-06-02T15:44:00.414Z,21.66
2018-06-02T15:46:29.464Z,21.53
2018-06-02T15:49:01.189Z,21.61
2018-06-02T15:51:30.287Z,22.04
2018-06-02T15:53:59.220Z,21.73
2018-06-02T15:56:28.346Z,21.79
2018-06-02T15:58:57.567Z,21.90
2018-06-02T16:01:26.671Z,21.92
2018-06-02T16:03:55.658Z,22.04
2018-06-02T16:06:24.954Z,22.11
2018-06-02T16:08:54.008Z,22.14
2018-06-02T16:11:23.234Z,22.18
2018-06-02T16:13:52.440Z,22.10
2018-06-02T16:16:21.581Z,22.39
2018-06-02T16:18:50.615Z,22.15
2018-06-02T16:21:19.739Z,22.13
2018-06-02T16:23:48.786Z,21.92
2018-06-02T16:26:17.735Z,21.84
2018-06-02T16:28:46.908Z,21.85
2018-06-02T16:31:16.039Z,21.88
2018-06-02T16:33:48.104Z,21.87
2018-06-02T16:36:16.983Z,21.73
2018-06-02T16:38:45.918Z,21.66
2018-06-02T16:41:15.009Z,21.60
2018-06-02T16:43:46.982Z,21.66
2018-06-02T16:46:16.083Z,21.55
2018-06-02T16:48:45.373Z,21.60
2018-06-02T16:51:14.582Z,21.67
2018-06-02T16:53:43.677Z,21.63
2018-06-02T16:56:12.789Z,21.64
2018-06-02T16:58:41.765Z,21.60
2018-06-02T17:01:10.862Z,21.54
2018-06-02T17:03:40.077Z,21.52
2018-06-02T17:06:09.248Z,21.47
2018-06-02T17:08:38.292Z,21.53
2018-06-02T17:11:07.537Z,21.46
2018-06-02T17:13:36.763Z,21.42
2018-06-02T17:16:08.586Z,21.47
2018-06-02T17:18:37.559Z,21.39
2018-06-02T17:21:06.648Z,21.43
2018-06-02T17:23:38.462Z,21.41
2018-06-02T17:26:07.359Z,21.34
2018-06-02T17:28:36.437Z,21.36
2018-06-02T17:31:05.569Z,21.31
2018-06-02T17:33:34.552Z,21.33
2018-06-02T17:36:03.640Z,21.38
2018-06-02T17:38:32.816Z,21.47
2018-06-02T17:41:01.892Z,21.51
2018-06-02T17:43:31.438Z,21.52
2018-06-02T17:46:03.244Z,21.50
2018-06-02T17:48:32.379Z,21.51
2018-06-02T17:51:01.523Z,21.48
2018-06-02T17:53:30.473Z,21.39
2018-06-02T17:55:59.573Z,21.43
2018-06-02T17:58:28.911Z,21.31
2018-06-02T18:00:57.980Z,21.18
2018-06-02T18:03:27.395Z,21.16
2018-06-02T18:05:56.534Z,21.15
2018-06-02T18:08:27.793Z,21.47
2018-06-02T18:10:57.299Z,21.19
2018-06-02T18:13:26.295Z,21.17
2018-06-02T18:15:57.871Z,21.10
2018-06-02T18:18:27.021Z,21.10
2018-06-02T18:20:56.063Z,21.07
2018-06-02T18:23:25.425Z,21.04
2018-06-02T18:25:54.531Z,20.98
2018-06-02T18:28:23.783Z,21.35
2018-06-02T18:30:52.945Z,21.12
2018-06-02T18:33:22.032Z,20.99
2018-06-02T18:35:50.909Z,20.92
2018-06-02T18:38:19.910Z,20.92
2018-06-02T18:40:51.066Z,20.91
2018-06-02T18:43:20.125Z,20.92
2018-06-02T18:45:49.294Z,20.86
2018-06-02T18:48:18.693Z,20.84
2018-06-02T18:50:47.771Z,20.83
2018-06-02T18:53:16.894Z,20.80
2018-06-02T18:55:45.944Z,20.66
2018-06-02T18:58:15.037Z,20.70
2018-06-02T19:00:46.606Z,20.66
2018-06-02T19:03:15.805Z,20.57
2018-06-02T19:05:45.448Z,20.54
2018-06-02T19:08:14.744Z,20.54
2018-06-02T19:10:44.109Z,20.54
2018-06-02T19:13:15.860Z,20.54
2018-06-02T19:15:44.897Z,20.46
2018-06-02T19:18:14.019Z,20.48
2018-06-02T19:20:43.825Z,20.45
2018-06-02T19:23:17.672Z,20.44
2018-06-02T19:25:47.305Z,20.76
2018-06-02T19:28:16.547Z,20.50
2018-06-02T19:30:45.642Z,20.45
2018-06-02T19:33:18.219Z,20.33
2018-06-02T19:35:47.206Z,20.30
2018-06-02T19:38:16.029Z,20.30
2018-06-02T19:40:44.905Z,20.22
2018-06-02T19:43:13.810Z,20.18
2018-06-02T19:45:42.658Z,20.14
2018-06-02T19:48:11.547Z,20.13
2018-06-02T19:50:40.353Z,20.15
2018-06-02T19:53:09.192Z,20.12
2018-06-02T19:55:38.061Z,20.08
2018-06-02T19:58:06.936Z,20.06
2018-06-02T20:00:35.821Z,19.99
2018-06-02T20:03:20.328Z,19.98
2018-06-02T20:05:49.170Z,19.90
2018-06-02T20:08:17.998Z,19.94
2018-06-02T20:10:46.837Z,19.95
2018-06-02T20:13:15.680Z,19.89
2018-06-02T20:15:44.521Z,19.86
2018-06-02T20:18:13.330Z,19.82
2018-06-02T20:20:42.196Z,19.84
2018-06-02T20:23:11.014Z,19.77
2018-06-02T20:25:39.876Z,19.79
2018-06-02T20:28:08.726Z,19.75
2018-06-02T20:30:37.550Z,19.66
2018-06-02T20:33:06.402Z,19.63
2018-06-02T20:35:35.253Z,19.53
2018-06-02T20:38:04.123Z,19.42
2018-06-02T20:40:32.979Z,19.33
2018-06-02T20:43:01.806Z,19.30
2018-06-02T20:45:30.660Z,19.53
2018-06-02T20:47:59.527Z,19.35
2018-06-02T20:50:28.371Z,19.32
2018-06-02T20:52:57.245Z,19.32
2018-06-02T20:55:26.135Z,19.36
2018-06-02T20:57:54.981Z,19.37
2018-06-02T21:00:23.836Z,19.37
2018-06-02T21:02:52.695Z,19.36
2018-06-02T21:05:21.605Z,19.38
2018-06-02T21:07:50.401Z,19.38
2018-06-02T21:10:19.257Z,19.32
2018-06-02T21:12:48.070Z,19.30
2018-06-02T21:15:16.909Z,19.30
2018-06-02T21:17:45.739Z,19.27
2018-06-02T21:20:14.574Z,19.29
2018-06-02T21:22:43.439Z,19.25
2018-06-02T21:25:12.246Z,19.26
2018-06-02T21:27:41.083Z,19.27
2018-06-02T21:30:09.946Z,19.27
2018-06-02T21:32:38.776Z,19.25
2018-06-02T21:35:07.618Z,19.26
2018-06-02T21:37:36.458Z,19.25
2018-06-02T21:40:05.296Z,19.27
2018-06-02T21:42:34.132Z,19.28
2018-06-02T21:45:02.991Z,19.30
2018-06-02T21:47:31.869Z,19.31
2018-06-02T21:50:00.686Z,19.32
2018-06-02T21:52:29.525Z,19.29
2018-06-02T21:54:58.363Z,19.28
2018-06-02T21:57:27.222Z,19.29
2018-06-02T21:59:56.067Z,19.28
2018-06-02T22:02:24.933Z,19.27
2018-06-02T22:04:53.789Z,19.24
2018-06-02T22:07:22.621Z,19.23
2018-06-02T22:09:51.481Z,19.24
2018-06-02T22:12:20.327Z,19.25
2018-06-02T22:14:49.191Z,19.27
2018-06-02T22:17:18.035Z,19.27
2018-06-02T22:19:46.878Z,19.23
2018-06-02T22:22:15.684Z,19.27
2018-06-02T22:24:44.531Z,19.24
2018-06-02T22:27:13.377Z,19.29
2018-06-02T22:29:42.249Z,19.26
2018-06-02T22:32:11.104Z,19.23
2018-06-02T22:34:39.939Z,19.16
2018-06-02T22:37:08.799Z,19.20
2018-06-02T22:39:37.718Z,19.18
2018-06-02T22:42:06.571Z,19.18
2018-06-02T22:44:35.554Z,19.20
2018-06-02T22:47:04.391Z,19.16
2018-06-02T22:49:33.211Z,19.17
2018-06-02T22:52:02.070Z,19.16
2018-06-02T22:54:30.921Z,19.14
2018-06-02T22:56:59.810Z,19.12
2018-06-02T22:59:28.785Z,19.15
2018-06-02T23:01:57.934Z,19.13
2018-06-02T23:04:26.795Z,19.13
2018-06-02T23:06:55.678Z,19.13
2018-06-02T23:09:24.528Z,19.13
2018-06-02T23:11:53.372Z,19.14
2018-06-02T23:14:22.247Z,19.12
2018-06-02T23:16:51.057Z,19.13
2018-06-02T23:19:19.894Z,19.12
2018-06-02T23:21:48.715Z,19.12
2018-06-02T23:24:17.553Z,19.07
2018-06-02T23:26:46.362Z,19.08
2018-06-02T23:29:15.296Z,19.04
2018-06-02T23:31:44.086Z,19.00
2018-06-02T23:34:12.925Z,18.95
2018-06-02T23:36:41.782Z,18.90
2018-06-02T23:39:10.624Z,18.85
2018-06-02T23:41:39.451Z,18.78
2018-06-02T23:44:08.285Z,19.08
2018-06-02T23:46:37.130Z,18.86
2018-06-02T23:49:05.983Z,18.82
2018-06-02T23:51:34.823Z,18.76
2018-06-02T23:54:03.661Z,18.69
2018-06-02T23:56:32.498Z,18.64
2018-06-02T23:59:01.333Z,18.92
